createdAt,value
2023-02-24T00:02:15.305Z,15.50
2023-02-24T00:04:44.210Z,14.43
2023-02-24T00:07:14.313Z,14.53
2023-02-24T00:09:44.674Z,16.50
2023-02-24T00:12:17.049Z,15.63
2023-02-24T00:14:47.022Z,16.37
2023-02-24T00:17:15.897Z,15.33
2023-02-24T00:19:46.518Z,19.07
2023-02-24T00:22:16.685Z,18.10
2023-02-24T00:24:46.464Z,16.77
2023-02-24T00:27:15.447Z,18.13
2023-02-24T00:29:47.800Z,19.17
2023-02-24T00:32:17.185Z,18.43
2023-02-24T00:34:46.469Z,20.37
2023-02-24T00:37:16.550Z,18.13
2023-02-24T00:39:46.770Z,19.53
2023-02-24T00:42:15.579Z,21.27
2023-02-24T00:44:47.925Z,20.83
2023-02-24T00:47:18.703Z,20.20
2023-02-24T00:49:48.458Z,20.53
2023-02-24T00:52:21.458Z,18.40
2023-02-24T00:54:51.367Z,21.90
2023-02-24T00:57:21.593Z,19.20
2023-02-24T00:59:52.998Z,19.60
2023-02-24T01:02:21.767Z,22.03
2023-02-24T01:04:51.155Z,18.20
2023-02-24T01:07:21.936Z,19.57
2023-02-24T01:09:52.372Z,21.43
2023-02-24T01:12:38.798Z,21.97
2023-02-24T01:15:11.250Z,23.23
2023-02-24T01:17:41.426Z,20.73
2023-02-24T01:20:18.050Z,20.57
2023-02-24T01:22:50.697Z,20.03
2023-02-24T01:25:20.716Z,20.80
2023-02-24T01:27:49.874Z,22.37
2023-02-24T01:30:18.829Z,21.87
2023-02-24T01:32:48.686Z,21.17
2023-02-24T01:35:18.097Z,20.53
2023-02-24T01:37:48.150Z,20.33
2023-02-24T01:40:21.102Z,21.10
2023-02-24T01:42:51.122Z,19.43
2023-02-24T01:45:26.542Z,22.13
2023-02-24T01:47:58.790Z,21.20
2023-02-24T01:50:29.372Z,22.53
2023-02-24T01:53:04.192Z,21.73
2023-02-24T01:55:38.284Z,22.33
2023-02-24T01:58:12.936Z,22.63
2023-02-24T02:00:47.191Z,22.23
2023-02-24T02:03:25.364Z,19.73
2023-02-24T02:05:56.264Z,22.20
2023-02-24T02:08:27.286Z,24.13
2023-02-24T02:10:59.031Z,20.50
2023-02-24T02:13:30.081Z,23.10
2023-02-24T02:16:15.134Z,20.77
2023-02-24T02:18:57.643Z,20.37
2023-02-24T02:22:05.817Z,22.20
2023-02-24T02:24:54.252Z,18.50
2023-02-24T02:28:10.269Z,21.40
2023-02-24T02:31:23.527Z,20.90
2023-02-24T02:34:30.589Z,20.43
2023-02-24T02:37:08.695Z,17.80
2023-02-24T02:39:50.738Z,20.70
2023-02-24T02:42:30.204Z,21.77
2023-02-24T02:45:08.726Z,19.50
2023-02-24T02:47:44.138Z,20.87
2023-02-24T02:50:21.506Z,18.90
2023-02-24T02:52:55.219Z,20.93
2023-02-24T02:55:33.487Z,23.53
2023-02-24T02:58:04.793Z,21.63
2023-02-24T03:00:37.766Z,21.00
2023-02-24T03:03:13.653Z,21.20
2023-02-24T03:05:51.781Z,20.43
2023-02-24T03:08:26.692Z,24.23
2023-02-24T03:11:00.468Z,20.73
2023-02-24T03:13:36.906Z,21.27
2023-02-24T03:16:07.579Z,22.17
2023-02-24T03:18:44.748Z,20.50
2023-02-24T03:21:19.197Z,21.63
2023-02-24T03:23:51.956Z,23.23
2023-02-24T03:26:28.729Z,24.80
2023-02-24T03:29:07.319Z,20.93
2023-02-24T03:31:46.041Z,22.50
2023-02-24T03:34:20.929Z,23.57
2023-02-24T03:36:51.183Z,24.80
2023-02-24T03:39:19.985Z,21.63
2023-02-24T03:42:15.901Z,20.13
2023-02-24T03:44:45.561Z,21.60
2023-02-24T03:47:15.995Z,21.70
2023-02-24T03:49:45.439Z,23.27
2023-02-24T03:52:29.760Z,19.10
2023-02-24T03:55:19.153Z,19.00
2023-02-24T03:58:03.792Z,21.93
2023-02-24T04:00:44.796Z,21.37
2023-02-24T04:03:25.786Z,22.43
2023-02-24T04:06:12.456Z,21.43
2023-02-24T04:08:52.157Z,18.17
2023-02-24T04:11:29.352Z,22.33
2023-02-24T04:14:06.616Z,21.80
2023-02-24T04:16:43.377Z,26.33
2023-02-24T04:19:16.869Z,19.50
2023-02-24T04:21:49.661Z,20.47
2023-02-24T04:24:31.689Z,22.00
2023-02-24T04:27:03.435Z,20.67
2023-02-24T04:29:47.230Z,20.27
2023-02-24T04:32:24.132Z,21.07
2023-02-24T04:34:53.097Z,20.10
2023-02-24T04:37:23.245Z,21.43
2023-02-24T04:39:53.632Z,22.03
2023-02-24T04:42:29.081Z,21.30
2023-02-24T04:44:58.730Z,20.63
2023-02-24T04:47:28.965Z,21.40
2023-02-24T04:49:57.707Z,20.83
2023-02-24T04:52:26.401Z,22.10
2023-02-24T04:54:56.583Z,21.70
2023-02-24T04:57:25.827Z,24.77
2023-02-24T04:59:54.983Z,23.97
2023-02-24T05:02:23.784Z,28.27
2023-02-24T05:04:52.728Z,24.53
2023-02-24T05:07:22.658Z,26.13
2023-02-24T05:09:51.390Z,21.50
2023-02-24T05:12:21.425Z,21.90
2023-02-24T05:14:50.064Z,26.63
2023-02-24T05:17:18.920Z,23.27
2023-02-24T05:20:05.107Z,25.40
2023-02-24T05:22:33.823Z,23.67
2023-02-24T05:25:03.651Z,25.43
2023-02-24T05:27:37.462Z,26.30
2023-02-24T05:30:09.913Z,28.53
2023-02-24T05:32:39.174Z,25.07
2023-02-24T05:35:10.820Z,26.83
2023-02-24T05:37:42.664Z,26.10
2023-02-24T05:40:14.872Z,26.17
2023-02-24T05:42:45.384Z,26.60
2023-02-24T05:45:14.050Z,25.10
2023-02-24T05:47:46.514Z,27.13
2023-02-24T05:50:15.993Z,25.10
2023-02-24T05:52:45.935Z,26.03
2023-02-24T05:55:15.983Z,24.57
2023-02-24T05:57:46.314Z,28.00
2023-02-24T06:00:16.626Z,27.17
2023-02-24T06:02:49.676Z,27.27
2023-02-24T06:05:33.420Z,25.13
2023-02-24T06:08:06.351Z,25.43
2023-02-24T06:10:35.340Z,27.97
2023-02-24T06:13:06.948Z,27.40
2023-02-24T06:15:35.618Z,27.80
2023-02-24T06:18:04.439Z,28.27
2023-02-24T06:20:33.580Z,25.40
2023-02-24T06:23:04.476Z,25.53
2023-02-24T06:25:33.432Z,24.23
2023-02-24T06:28:02.191Z,28.37
2023-02-24T06:30:32.940Z,26.60
2023-02-24T06:33:01.953Z,25.40
2023-02-24T06:35:33.013Z,28.27
2023-02-24T06:38:01.644Z,28.73
2023-02-24T06:40:31.613Z,30.93
2023-02-24T06:43:00.329Z,25.43
2023-02-24T06:45:30.561Z,26.27
2023-02-24T06:48:00.811Z,26.20
2023-02-24T06:50:29.479Z,33.20
2023-02-24T06:53:00.932Z,37.40
2023-02-24T06:55:29.948Z,38.40
2023-02-24T06:58:04.725Z,30.60
2023-02-24T07:00:39.032Z,31.10
2023-02-24T07:03:17.154Z,28.50
2023-02-24T07:05:54.188Z,29.13
2023-02-24T07:08:25.257Z,25.47
2023-02-24T07:10:56.066Z,28.50
2023-02-24T07:13:26.022Z,26.60
2023-02-24T07:15:55.062Z,26.73
2023-02-24T07:18:26.736Z,27.07
2023-02-24T07:20:55.408Z,28.30
2023-02-24T07:23:24.060Z,27.37
2023-02-24T07:25:53.500Z,24.40
2023-02-24T07:28:22.941Z,31.77
2023-02-24T07:30:52.667Z,28.27
2023-02-24T07:33:23.253Z,28.67
2023-02-24T07:35:54.036Z,24.67
2023-02-24T07:38:23.096Z,28.23
2023-02-24T07:40:52.360Z,24.07
2023-02-24T07:43:21.394Z,26.77
2023-02-24T07:45:50.100Z,24.83
2023-02-24T07:48:18.775Z,27.70
2023-02-24T07:50:47.996Z,26.80
2023-02-24T07:53:19.106Z,27.37
2023-02-24T07:55:47.789Z,28.57
2023-02-24T07:58:18.416Z,24.87
2023-02-24T08:01:00.912Z,29.80
2023-02-24T08:03:30.545Z,26.17
2023-02-24T08:06:12.983Z,29.73
2023-02-24T08:08:59.014Z,25.63
2023-02-24T08:11:35.682Z,29.03
2023-02-24T08:14:10.952Z,28.47
2023-02-24T08:16:40.783Z,27.50
2023-02-24T08:19:13.347Z,29.13
2023-02-24T08:21:47.434Z,27.17
2023-02-24T08:24:20.132Z,26.83
2023-02-24T08:27:05.111Z,28.53
2023-02-24T08:29:40.357Z,24.87
2023-02-24T08:32:10.527Z,27.17
2023-02-24T08:34:40.393Z,27.47
2023-02-24T08:37:08.964Z,25.93
2023-02-24T08:39:38.981Z,26.53
2023-02-24T08:42:07.734Z,22.07
2023-02-24T08:44:37.350Z,24.40
2023-02-24T08:47:07.575Z,23.57
2023-02-24T08:49:36.211Z,23.13
2023-02-24T08:52:07.300Z,22.80
2023-02-24T08:54:48.046Z,24.50
2023-02-24T08:57:18.402Z,26.50
2023-02-24T08:59:51.078Z,23.13
2023-02-24T09:02:27.454Z,22.90
2023-02-24T09:04:59.495Z,22.07
2023-02-24T09:07:35.364Z,19.63
2023-02-24T09:10:05.837Z,22.40
2023-02-24T09:12:41.267Z,22.07
2023-02-24T09:15:15.473Z,23.03
2023-02-24T09:18:01.353Z,22.43
2023-02-24T09:20:47.243Z,21.10
2023-02-24T09:23:20.134Z,24.23
2023-02-24T09:25:54.426Z,24.10
2023-02-24T09:28:26.840Z,24.63
2023-02-24T09:30:58.781Z,21.63
2023-02-24T09:33:29.818Z,23.87
2023-02-24T09:36:09.929Z,25.30
2023-02-24T09:41:57.648Z,22.03
2023-02-24T09:44:34.350Z,23.80
2023-02-24T09:47:14.119Z,27.23
2023-02-24T09:49:56.398Z,25.57
2023-02-24T09:52:39.847Z,23.97
2023-02-24T09:55:26.096Z,20.63
2023-02-24T09:58:29.366Z,24.17
2023-02-24T10:01:33.637Z,22.17
2023-02-24T10:04:21.812Z,22.73
2023-02-24T10:06:52.623Z,21.17
2023-02-24T10:09:27.754Z,22.53
2023-02-24T10:12:04.531Z,21.07
2023-02-24T10:14:52.977Z,20.43
2023-02-24T10:17:40.149Z,18.77
2023-02-24T10:20:31.036Z,20.87
2023-02-24T10:23:09.735Z,20.60
2023-02-24T10:25:53.968Z,22.23
2023-02-24T10:28:36.028Z,20.77
2023-02-24T10:31:25.476Z,25.23
2023-02-24T10:34:00.925Z,24.80
2023-02-24T10:36:36.300Z,22.10
2023-02-24T10:39:17.023Z,24.07
2023-02-24T10:41:49.334Z,22.10
2023-02-24T10:44:26.088Z,25.90
2023-02-24T10:47:12.530Z,23.20
2023-02-24T10:49:57.266Z,24.30
2023-02-24T10:52:37.130Z,28.13
2023-02-24T10:55:28.428Z,26.27
2023-02-24T10:58:07.663Z,27.00
2023-02-24T11:01:01.128Z,26.57
2023-02-24T11:03:42.269Z,23.93
2023-02-24T11:06:47.909Z,24.43
2023-02-24T11:09:32.265Z,23.93
2023-02-24T11:12:24.856Z,25.13
2023-02-24T11:15:14.373Z,31.17
2023-02-24T11:17:50.948Z,29.57
2023-02-24T11:20:48.560Z,28.53
2023-02-24T11:23:23.666Z,29.90
2023-02-24T11:25:58.346Z,27.50
2023-02-24T11:28:59.712Z,26.63
2023-02-24T11:31:45.375Z,25.50
2023-02-24T11:34:24.902Z,25.20
2023-02-24T11:37:04.677Z,25.87
2023-02-24T11:39:53.136Z,27.30
2023-02-24T11:42:28.079Z,22.57
2023-02-24T11:45:04.115Z,26.03
2023-02-24T11:47:40.396Z,25.93
2023-02-24T11:50:30.694Z,24.30
2023-02-24T11:53:04.811Z,22.70
2023-02-24T11:55:39.491Z,24.07
2023-02-24T11:58:18.573Z,24.07
2023-02-24T12:00:56.137Z,24.73
2023-02-24T12:03:36.707Z,20.90
2023-02-24T12:06:17.418Z,22.20
2023-02-24T12:08:52.739Z,22.43
2023-02-24T12:11:35.644Z,23.03
2023-02-24T12:14:19.082Z,20.70
2023-02-24T12:16:54.276Z,23.60
2023-02-24T12:19:30.308Z,22.57
2023-02-24T12:22:06.024Z,22.60
2023-02-24T12:24:37.101Z,19.23
2023-02-24T12:27:21.256Z,24.43
2023-02-24T12:30:23.155Z,26.00
2023-02-24T12:33:08.531Z,21.97
2023-02-24T12:35:49.268Z,25.97
2023-02-24T12:38:35.855Z,20.63
2023-02-24T12:41:20.927Z,25.40
2023-02-24T12:44:01.400Z,22.73
2023-02-24T12:46:34.834Z,22.93
2023-02-24T12:49:27.541Z,25.27
2023-02-24T12:52:10.239Z,21.97
2023-02-24T12:54:48.633Z,26.00
2023-02-24T12:57:26.746Z,25.70
2023-02-24T12:59:58.252Z,26.77
2023-02-24T13:02:40.878Z,24.07
2023-02-24T13:05:20.844Z,22.80
2023-02-24T13:08:12.575Z,26.70
2023-02-24T13:10:48.691Z,23.47
2023-02-24T13:13:28.872Z,24.10
2023-02-24T13:16:01.258Z,21.47
2023-02-24T13:18:31.996Z,22.80
2023-02-24T13:21:10.719Z,20.53
2023-02-24T13:23:43.659Z,22.77
2023-02-24T13:26:12.419Z,20.33
2023-02-24T13:28:41.171Z,22.93
2023-02-24T13:31:14.030Z,19.83
2023-02-24T13:33:45.281Z,19.23
2023-02-24T13:36:21.627Z,21.60
2023-02-24T13:38:52.852Z,20.53
2023-02-24T13:41:38.322Z,19.90
2023-02-24T13:44:26.511Z,17.97
2023-02-24T13:47:35.215Z,16.90
2023-02-24T13:50:25.496Z,18.07
2023-02-24T13:53:26.731Z,17.97
2023-02-24T13:56:12.323Z,19.63
2023-02-24T13:59:07.220Z,16.83
2023-02-24T14:01:50.790Z,19.60
2023-02-24T14:04:27.846Z,18.27
2023-02-24T14:07:02.562Z,19.20
2023-02-24T14:09:34.848Z,15.40
2023-02-24T14:12:14.315Z,12.63
2023-02-24T14:14:44.842Z,14.77
2023-02-24T14:17:25.362Z,16.80
2023-02-24T14:19:56.962Z,15.27
2023-02-24T14:22:25.920Z,16.60
2023-02-24T14:25:03.641Z,16.20
2023-02-24T14:27:32.997Z,16.27
2023-02-24T14:30:01.756Z,12.60
2023-02-24T14:32:30.679Z,13.23
2023-02-24T14:35:01.048Z,14.30
2023-02-24T14:37:33.039Z,10.30
2023-02-24T14:40:05.927Z,14.27
2023-02-24T14:42:36.325Z,10.47
2023-02-24T14:45:19.007Z,10.53
2023-02-24T14:47:47.729Z,9.83
2023-02-24T14:50:21.359Z,10.10
2023-02-24T14:52:53.341Z,11.30
2023-02-24T14:55:24.665Z,11.27
2023-02-24T14:58:00.222Z,8.67
2023-02-24T15:00:33.882Z,8.63
2023-02-24T15:03:08.820Z,8.27
2023-02-24T15:05:44.641Z,9.83
2023-02-24T15:08:31.170Z,8.60
2023-02-24T15:11:00.287Z,7.47
2023-02-24T15:13:37.306Z,7.77
2023-02-24T15:16:14.463Z,7.23
2023-02-24T15:18:43.965Z,5.20
2023-02-24T15:21:23.643Z,8.37
2023-02-24T15:24:01.235Z,6.33
2023-02-24T15:26:32.943Z,5.37
2023-02-24T15:29:05.222Z,5.80
2023-02-24T15:31:33.938Z,6.80
2023-02-24T15:34:03.817Z,6.50
2023-02-24T15:36:37.285Z,6.03
2023-02-24T15:39:10.756Z,7.80
2023-02-24T15:41:42.161Z,7.80
2023-02-24T15:44:27.528Z,6.37
2023-02-24T15:46:57.266Z,6.43
2023-02-24T15:49:26.104Z,6.80
2023-02-24T15:51:59.710Z,7.90
2023-02-24T15:54:33.480Z,10.30
2023-02-24T15:57:05.361Z,7.87
2023-02-24T15:59:34.211Z,8.13
2023-02-24T16:02:03.981Z,6.67
2023-02-24T16:04:32.753Z,7.57
2023-02-24T16:07:02.930Z,6.37
2023-02-24T16:09:36.404Z,7.07
2023-02-24T16:12:09.643Z,7.30
2023-02-24T16:14:39.195Z,7.03
2023-02-24T16:17:20.364Z,7.90
2023-02-24T16:19:49.004Z,7.50
2023-02-24T16:22:19.181Z,9.53
2023-02-24T16:24:47.801Z,7.10
2023-02-24T16:27:18.510Z,11.03
2023-02-24T16:29:49.670Z,6.03
2023-02-24T16:32:18.590Z,7.43
2023-02-24T16:34:47.331Z,6.47
2023-02-24T16:37:22.943Z,7.50
2023-02-24T16:39:51.883Z,8.60
2023-02-24T16:42:21.919Z,9.90
2023-02-24T16:44:51.732Z,8.70
2023-02-24T16:47:24.376Z,9.23
2023-02-24T16:49:57.711Z,10.27
2023-02-24T16:52:28.639Z,7.80
2023-02-24T16:54:57.284Z,9.33
2023-02-24T16:57:25.982Z,8.53
2023-02-24T16:59:54.613Z,8.20
2023-02-24T17:02:26.938Z,9.20
2023-02-24T17:04:55.513Z,8.30
2023-02-24T17:07:24.241Z,7.70
2023-02-24T17:09:54.263Z,6.23
2023-02-24T17:12:23.189Z,7.13
2023-02-24T17:14:52.217Z,7.27
2023-02-24T17:17:21.629Z,9.83
2023-02-24T17:19:50.280Z,7.10
2023-02-24T17:22:19.021Z,7.27
2023-02-24T17:24:47.617Z,6.13
2023-02-24T17:27:17.667Z,8.63
2023-02-24T17:29:46.287Z,6.03
2023-02-24T17:32:15.193Z,6.03
2023-02-24T17:34:43.922Z,5.40
2023-02-24T17:37:12.555Z,5.83
2023-02-24T17:39:41.213Z,4.83
2023-02-24T17:42:10.147Z,5.63
2023-02-24T17:44:40.287Z,4.60
2023-02-24T17:47:09.109Z,5.17
2023-02-24T17:49:37.822Z,4.00
2023-02-24T17:52:06.728Z,6.97
2023-02-24T17:54:35.474Z,3.87
2023-02-24T17:57:04.076Z,3.87
2023-02-24T17:59:32.778Z,4.77
2023-02-24T18:02:03.348Z,4.83
2023-02-24T18:04:32.557Z,3.43
2023-02-24T18:07:01.130Z,3.70
2023-02-24T18:09:29.868Z,6.10
2023-02-24T18:11:58.528Z,4.23
2023-02-24T18:14:27.662Z,3.23
2023-02-24T18:16:56.282Z,3.07
2023-02-24T18:19:26.312Z,4.50
2023-02-24T18:21:54.942Z,3.90
2023-02-24T18:24:23.642Z,3.80
2023-02-24T18:26:52.214Z,3.30
2023-02-24T18:29:20.899Z,5.57
2023-02-24T18:31:49.786Z,3.70
2023-02-24T18:34:18.643Z,3.63
2023-02-24T18:36:48.674Z,3.13
2023-02-24T18:39:17.303Z,3.50
2023-02-24T18:41:46.021Z,3.23
2023-02-24T18:44:14.630Z,5.13
2023-02-24T18:46:43.343Z,3.57
2023-02-24T18:49:12.204Z,3.30
2023-02-24T18:51:40.973Z,4.30
2023-02-24T18:54:12.615Z,4.40
2023-02-24T18:56:41.293Z,3.10
2023-02-24T18:59:10.120Z,2.60
2023-02-24T19:01:40.360Z,4.83
2023-02-24T19:04:10.584Z,3.33
2023-02-24T19:06:41.587Z,3.67
2023-02-24T19:09:12.777Z,4.03
2023-02-24T19:11:43.267Z,3.80
2023-02-24T19:14:14.019Z,3.57
2023-02-24T19:16:43.292Z,3.43
2023-02-24T19:19:14.790Z,5.27
2023-02-24T19:21:45.506Z,3.07
2023-02-24T19:24:17.051Z,3.33
2023-02-24T19:26:47.572Z,2.60
2023-02-24T19:29:17.184Z,3.73
2023-02-24T19:31:46.742Z,4.00
2023-02-24T19:34:16.361Z,3.23
2023-02-24T19:36:45.011Z,3.30
2023-02-24T19:39:19.386Z,2.40
2023-02-24T19:41:49.671Z,4.77
2023-02-24T19:44:18.641Z,2.87
2023-02-24T19:46:47.386Z,3.30
2023-02-24T19:49:16.029Z,2.77
2023-02-24T19:51:46.628Z,3.00
2023-02-24T19:54:18.434Z,2.73
2023-02-24T19:56:47.054Z,2.77
2023-02-24T19:59:15.719Z,4.93
2023-02-24T20:01:44.916Z,3.80
2023-02-24T20:04:13.991Z,3.30
2023-02-24T20:06:44.055Z,3.00
2023-02-24T20:09:15.698Z,4.90
2023-02-24T20:11:46.929Z,4.87
2023-02-24T20:14:17.900Z,5.13
2023-02-24T20:16:47.906Z,5.73
2023-02-24T20:19:18.072Z,6.40
2023-02-24T20:21:47.474Z,10.33
2023-02-24T20:24:18.331Z,5.97
2023-02-24T20:26:50.076Z,7.90
2023-02-24T20:29:21.811Z,8.00
2023-02-24T20:31:51.153Z,8.23
2023-02-24T20:34:20.033Z,6.50
2023-02-24T20:36:48.682Z,4.70
2023-02-24T20:39:17.330Z,4.73
2023-02-24T20:41:47.351Z,4.63
2023-02-24T20:44:15.988Z,4.23
2023-02-24T20:46:44.642Z,4.37
2023-02-24T20:49:14.983Z,4.77
2023-02-24T20:51:44.841Z,6.43
2023-02-24T20:54:15.145Z,4.33
2023-02-24T20:56:45.795Z,3.93
2023-02-24T20:59:18.235Z,4.17
2023-02-24T21:01:48.597Z,4.30
2023-02-24T21:04:20.195Z,12.27
2023-02-24T21:06:51.497Z,5.17
2023-02-24T21:09:20.134Z,4.57
2023-02-24T21:11:48.816Z,5.93
2023-02-24T21:14:18.968Z,5.73
2023-02-24T21:16:48.052Z,3.97
2023-02-24T21:19:17.898Z,4.30
2023-02-24T21:21:46.775Z,5.20
2023-02-24T21:24:15.392Z,4.20
2023-02-24T21:26:44.078Z,3.50
2023-02-24T21:29:12.832Z,4.53
2023-02-24T21:31:43.225Z,3.73
2023-02-24T21:34:12.249Z,3.90
2023-02-24T21:36:40.948Z,5.77
2023-02-24T21:39:14.088Z,4.80
2023-02-24T21:41:43.078Z,5.33
2023-02-24T21:44:14.316Z,5.13
2023-02-24T21:46:45.586Z,5.03
2023-02-24T21:49:14.855Z,5.27
2023-02-24T21:51:43.733Z,7.33
2023-02-24T21:54:14.393Z,4.23
2023-02-24T21:56:43.355Z,4.93
2023-02-24T21:59:12.319Z,3.70
2023-02-24T22:01:44.617Z,4.53
2023-02-24T22:04:16.086Z,4.17
2023-02-24T22:06:45.760Z,4.30
2023-02-24T22:09:19.429Z,4.27
2023-02-24T22:11:50.355Z,3.97
2023-02-24T22:14:19.464Z,5.33
2023-02-24T22:16:49.662Z,7.10
2023-02-24T22:19:19.534Z,5.20
2023-02-24T22:21:48.187Z,6.07
2023-02-24T22:24:18.690Z,4.57
2023-02-24T22:26:47.320Z,5.67
2023-02-24T22:29:16.086Z,5.53
2023-02-24T22:31:47.613Z,4.67
2023-02-24T22:34:19.124Z,4.47
2023-02-24T22:36:47.698Z,5.63
2023-02-24T22:39:17.071Z,4.13
2023-02-24T22:41:47.504Z,4.80
2023-02-24T22:44:19.334Z,4.87
2023-02-24T22:46:48.998Z,5.87
2023-02-24T22:49:19.172Z,4.83
2023-02-24T22:51:47.790Z,5.03
2023-02-24T22:54:16.660Z,4.77
2023-02-24T22:56:45.361Z,4.90
2023-02-24T22:59:15.948Z,5.23
2023-02-24T23:01:44.893Z,4.63
2023-02-24T23:04:18.887Z,4.87
2023-02-24T23:06:48.367Z,4.70
2023-02-24T23:09:19.947Z,4.47
2023-02-24T23:11:48.999Z,5.30
2023-02-24T23:14:20.700Z,4.90
2023-02-24T23:16:55.658Z,4.60
2023-02-24T23:19:25.987Z,5.33
2023-02-24T23:21:56.482Z,5.17
2023-02-24T23:24:25.778Z,6.00
2023-02-24T23:26:57.711Z,8.10
2023-02-24T23:29:27.979Z,6.57
2023-02-24T23:31:57.387Z,5.10
2023-02-24T23:34:27.563Z,6.70
2023-02-24T23:36:56.201Z,4.53
2023-02-24T23:39:24.862Z,5.43
2023-02-24T23:41:57.616Z,4.27
2023-02-24T23:44:26.807Z,3.93
2023-02-24T23:46:58.209Z,3.50
2023-02-24T23:49:39.249Z,4.50
2023-02-24T23:52:16.190Z,3.23
2023-02-24T23:54:44.895Z,5.73
2023-02-24T23:57:13.502Z,4.67
2023-02-24T23:59:42.348Z,7.10
